Time;durP1;ratioP1;P1;durP2;ratioP2;P2;SDS_P1;SDS_P2;PMS_P1;PMS_P2;Temp;Humidity;BMP_temperature;BMP_pressure;BME280_temperature;BME280_humidity;BME280_pressure;Samples;Min_cycle;Max_cycle;Signal;HPM_P1;HPM_P2
2022/10/15 00:01:05;;;;;;;10.52;5.07;;;;;;;18.44;70.82;100551.34;2098529;28;20048;-71
2022/10/15 00:02:28;;;;;;;8.40;5.38;;;;;;;18.42;71.07;100547.81;2097194;28;20167;-70
2022/10/15 00:03:51;;;;;;;9.27;5.80;;;;;;;18.38;70.92;100536.28;2094240;28;20053;-70
2022/10/15 00:05:12;;;;;;;7.85;4.90;;;;;;;18.37;70.89;100539.03;2088376;28;20156;-71
2022/10/15 00:06:35;;;;;;;8.32;5.15;;;;;;;18.37;71.24;100539.91;2084961;28;20398;-71
2022/10/15 00:07:57;;;;;;;8.05;4.55;;;;;;;18.42;71.17;100543.34;2091037;28;20036;-71
2022/10/15 00:09:20;;;;;;;8.75;5.25;;;;;;;18.45;71.28;100539.72;2089306;28;20123;-71
2022/10/15 00:10:41;;;;;;;8.95;5.30;;;;;;;18.47;70.98;100549.50;2090154;28;20056;-71
2022/10/15 00:12:05;;;;;;;8.32;5.22;;;;;;;18.46;70.99;100547.72;2091690;28;20589;-71
2022/10/15 00:13:28;;;;;;;9.73;5.97;;;;;;;18.44;70.76;100552.25;2092832;28;20097;-71
2022/10/15 00:14:50;;;;;;;8.23;5.40;;;;;;;18.45;70.87;100550.41;2095172;28;20571;-71
2022/10/15 00:16:14;;;;;;;10.23;5.38;;;;;;;18.45;71.00;100555.75;2102737;28;20458;-71
2022/10/15 00:17:38;;;;;;;9.15;5.05;;;;;;;18.45;71.25;100555.75;2102658;28;20566;-71
2022/10/15 00:19:00;;;;;;;7.53;4.97;;;;;;;18.46;71.06;100557.53;2094956;28;20049;-71
2022/10/15 00:20:21;;;;;;;8.82;5.60;;;;;;;18.48;71.23;100561.06;2085069;28;20513;-71
2022/10/15 00:21:44;;;;;;;7.38;4.88;;;;;;;18.47;71.27;100554.84;2091385;28;20045;-71
2022/10/15 00:23:07;;;;;;;9.73;5.47;;;;;;;18.47;71.29;100548.59;2093426;28;20488;-71
2022/10/15 00:24:29;;;;;;;8.90;5.43;;;;;;;18.48;71.28;100550.38;2098172;28;20069;-71
2022/10/15 00:26:00;;;;;;;9.80;5.85;;;;;;;18.48;70.98;100540.56;2086497;28;20551;-71
2022/10/15 00:27:22;;;;;;;8.82;5.65;;;;;;;18.46;70.85;100534.34;2100164;28;20051;-71
2022/10/15 00:28:48;;;;;;;8.20;5.38;;;;;;;18.46;70.84;100528.13;2102721;28;20044;-71
2022/10/15 00:30:12;;;;;;;8.13;5.22;;;;;;;18.44;70.92;100525.50;2092854;28;20047;-71
2022/10/15 00:31:35;;;;;;;8.13;5.28;;;;;;;18.44;71.22;100519.28;2094156;28;20143;-71
2022/10/15 00:32:56;;;;;;;8.60;5.13;;;;;;;18.45;71.09;100511.19;2094383;28;20048;-71
2022/10/15 00:34:19;;;;;;;8.50;5.47;;;;;;;18.44;71.46;100508.59;2086623;28;20452;-71
2022/10/15 00:35:42;;;;;;;9.10;5.05;;;;;;;18.46;71.61;100515.63;2093622;28;20139;-71
2022/10/15 00:37:04;;;;;;;10.00;5.15;;;;;;;18.48;71.55;100512.94;2088521;28;20060;-71
2022/10/15 00:38:26;;;;;;;9.35;5.38;;;;;;;18.47;71.67;100512.06;2086062;28;20561;-71
2022/10/15 00:39:49;;;;;;;8.20;5.43;;;;;;;18.50;71.59;100504.00;2086285;28;20057;-71
2022/10/15 00:41:15;;;;;;;8.30;5.03;;;;;;;18.53;71.45;100501.22;2099294;28;20048;-72
2022/10/15 00:42:38;;;;;;;10.13;4.80;;;;;;;18.51;71.40;100495.03;2096978;28;20131;-71
2022/10/15 00:44:02;;;;;;;7.53;4.80;;;;;;;18.52;71.41;100495.91;2101320;28;20044;-71
2022/10/15 00:45:25;;;;;;;8.40;4.88;;;;;;;18.50;71.62;100495.09;2108230;28;20479;-71
2022/10/15 00:46:48;;;;;;;8.60;4.95;;;;;;;18.52;71.64;100494.13;2110803;28;20057;-70
2022/10/15 00:48:11;;;;;;;7.93;4.78;;;;;;;18.53;71.51;100487.88;2102466;28;20054;-71
2022/10/15 00:49:36;;;;;;;6.45;4.40;;;;;;;18.56;71.55;100486.97;2107302;28;20059;-71
2022/10/15 00:51:05;;;;;;;9.50;4.97;;;;;;;18.58;71.63;100480.66;2102392;28;20123;-72
2022/10/15 00:52:33;;;;;;;8.18;4.82;;;;;;;18.64;71.60;100480.50;2103206;28;20043;-71
2022/10/15 00:53:56;;;;;;;9.02;5.07;;;;;;;18.69;71.66;100478.66;2093504;28;20045;-70
2022/10/15 00:55:23;;;;;;;8.30;5.25;;;;;;;18.76;71.54;100470.50;2099925;28;20052;-71
2022/10/15 00:56:46;;;;;;;10.32;5.28;;;;;;;18.82;71.15;100471.22;2101746;28;20051;-71
2022/10/15 00:58:13;;;;;;;7.55;4.88;;;;;;;18.83;70.66;100470.31;2108238;28;20138;-71
2022/10/15 00:59:42;;;;;;;7.18;4.72;;;;;;;18.83;70.12;100469.44;2104875;28;20036;-71
2022/10/15 01:01:05;;;;;;;9.25;4.65;;;;;;;18.83;70.19;100473.00;2109063;28;20206;-71
2022/10/15 01:02:28;;;;;;;7.68;4.85;;;;;;;18.84;69.96;100461.34;2101420;28;20543;-70
2022/10/15 01:03:50;;;;;;;10.65;5.25;;;;;;;18.85;69.79;100468.47;2102293;28;20588;-72
2022/10/15 01:05:15;;;;;;;9.73;5.63;;;;;;;18.88;69.68;100460.38;2107956;28;20051;-71
2022/10/15 01:06:39;;;;;;;9.38;5.28;;;;;;;18.91;70.15;100462.97;2109930;28;20051;-71
2022/10/15 01:08:04;;;;;;;7.65;5.05;;;;;;;18.98;70.05;100459.25;2104996;28;20080;-71
2022/10/15 01:09:26;;;;;;;7.38;4.65;;;;;;;19.03;70.23;100460.00;2095864;28;20048;-70
2022/10/15 01:10:53;;;;;;;10.57;4.53;;;;;;;19.10;70.22;100456.25;2098760;28;20040;-71
2022/10/15 01:12:24;;;;;;;6.88;4.25;;;;;;;19.19;70.65;100456.97;2100349;28;20036;-71
2022/10/15 01:13:57;;;;;;;9.93;4.63;;;;;;;19.25;70.57;100451.47;2103065;28;20392;-71
2022/10/15 01:15:26;;;;;;;7.68;4.88;;;;;;;19.34;70.66;100451.25;2101677;28;20164;-71
2022/10/15 01:16:55;;;;;;;7.70;4.50;;;;;;;19.40;70.74;100453.75;2100659;28;20060;-71
2022/10/15 01:18:23;;;;;;;8.18;4.28;;;;;;;19.44;70.48;100453.63;2103095;28;20131;-71
2022/10/15 01:20:10;;;;;;;7.38;4.30;;;;;;;19.52;70.39;100452.59;2099739;28;20052;-71
2022/10/15 01:21:39;;;;;;;9.52;4.65;;;;;;;19.57;70.61;100454.22;2098591;28;20059;-71
2022/10/15 01:23:31;;;;;;;6.70;4.00;;;;;;;19.66;70.41;100462.03;2101341;28;20072;-71
2022/10/15 01:25:04;;;;;;;7.78;5.13;;;;;;;19.72;70.41;100458.31;2103087;28;20047;-72
2022/10/15 01:27:02;;;;;;;8.60;4.35;;;;;;;19.69;69.80;100464.59;2101510;28;20039;-71
2022/10/15 01:28:40;;;;;;;9.82;4.82;;;;;;;19.63;69.69;100448.72;2113323;28;20043;-71
2022/10/15 01:30:16;;;;;;;7.75;4.35;;;;;;;19.62;69.86;100448.78;2096471;28;20165;-71
2022/10/15 01:31:45;;;;;;;7.57;4.72;;;;;;;19.61;69.79;100439.84;2102899;28;20059;-71
2022/10/15 01:33:25;;;;;;;8.35;4.65;;;;;;;19.64;70.12;100439.75;2099875;28;20048;-71
2022/10/15 01:34:54;;;;;;;7.68;3.90;;;;;;;19.69;70.02;100440.50;2103565;28;20098;-71
2022/10/15 01:36:21;;;;;;;8.93;4.97;;;;;;;19.71;70.19;100443.16;2108638;28;20048;-71
2022/10/15 01:37:49;;;;;;;8.43;4.88;;;;;;;19.65;69.81;100444.19;2098576;28;20075;-71
2022/10/15 01:39:20;;;;;;;11.93;4.63;;;;;;;19.58;69.65;100449.75;2111277;28;20094;-70
2022/10/15 01:40:47;;;;;;;8.40;4.18;;;;;;;19.51;69.67;100459.75;2101906;28;20135;-70
2022/10/15 01:42:17;;;;;;;8.80;4.93;;;;;;;19.45;69.72;100455.41;2100513;28;20048;-71
2022/10/15 01:43:46;;;;;;;8.73;4.25;;;;;;;19.41;70.15;100447.50;2102371;28;20032;-71
2022/10/15 01:45:32;;;;;;;8.07;4.45;;;;;;;19.39;70.33;100443.97;2103605;28;20105;-71
2022/10/15 01:47:19;;;;;;;10.13;4.47;;;;;;;19.35;70.48;100437.81;2113178;28;20071;-71
2022/10/15 01:48:44;;;;;;;7.97;4.30;;;;;;;19.34;70.57;100441.41;2102639;28;20048;-71
2022/10/15 01:50:10;;;;;;;7.82;4.65;;;;;;;19.35;70.40;100436.94;2091957;28;20080;-71
2022/10/15 01:51:35;;;;;;;11.32;4.90;;;;;;;19.35;70.78;100442.28;2104101;28;20146;-71
2022/10/15 01:53:00;;;;;;;7.00;4.60;;;;;;;19.32;70.48;100440.56;2110886;28;20032;-71
2022/10/15 01:54:27;;;;;;;8.60;4.47;;;;;;;19.31;70.61;100425.41;2104612;28;20483;-71
2022/10/15 01:55:49;;;;;;;9.52;4.63;;;;;;;19.28;70.51;100420.16;2100573;28;20037;-71
2022/10/15 01:57:13;;;;;;;7.20;4.40;;;;;;;19.27;70.60;100429.09;2098763;28;20036;-71
2022/10/15 01:58:38;;;;;;;8.73;4.40;;;;;;;19.25;70.69;100425.56;2099971;28;20918;-71
2022/10/15 02:00:02;;;;;;;8.18;4.88;;;;;;;19.24;70.76;100421.13;2094108;28;20064;-71
2022/10/15 02:01:36;;;;;;;9.60;4.35;;;;;;;19.23;70.63;100423.88;2094132;28;20156;-71
2022/10/15 02:03:00;;;;;;;9.20;4.70;;;;;;;19.19;71.08;100412.34;2108333;28;20565;-71
2022/10/15 02:04:24;;;;;;;8.27;5.18;;;;;;;19.18;71.10;100405.22;2112824;28;20070;-71
2022/10/15 02:05:52;;;;;;;7.07;4.55;;;;;;;19.20;71.12;100405.19;2110382;28;20122;-71
2022/10/15 02:07:23;;;;;;;8.68;4.65;;;;;;;19.20;71.27;100395.38;2094223;28;20040;-70
2022/10/15 02:08:56;;;;;;;10.20;5.05;;;;;;;19.22;71.11;100401.59;2102504;28;20086;-71
2022/10/15 02:10:26;;;;;;;11.65;5.18;;;;;;;19.22;70.99;100393.56;2101988;28;20042;-71
2022/10/15 02:12:01;;;;;;;8.35;4.78;;;;;;;19.19;70.93;100382.91;2109857;28;20498;-70
2022/10/15 02:13:31;;;;;;;10.82;5.15;;;;;;;19.17;71.14;100381.19;2103292;28;20044;-71
2022/10/15 02:15:00;;;;;;;6.95;4.60;;;;;;;19.13;71.20;100374.16;2098926;28;20052;-70
2022/10/15 02:16:26;;;;;;;10.25;4.45;;;;;;;19.10;71.32;100377.78;2100994;28;20326;-71
2022/10/15 02:18:01;;;;;;;8.63;4.68;;;;;;;19.08;71.59;100377.84;2102150;28;20151;-71
2022/10/15 02:19:29;;;;;;;8.73;4.63;;;;;;;19.07;71.61;100376.09;2103650;28;20036;-71
2022/10/15 02:20:57;;;;;;;;;;;;;;;19.05;71.72;100374.34;2101441;28;20056;-71
2022/10/15 02:22:25;;;;;;;7.45;4.95;;;;;;;19.06;71.76;100370.75;2093845;28;19928;-70
2022/10/15 02:23:52;;;;;;;8.82;5.25;;;;;;;19.08;71.96;100371.63;2105531;28;20130;-70
2022/10/15 02:25:21;;;;;;;7.10;4.63;;;;;;;19.05;71.80;100367.22;2102420;28;20040;-71
2022/10/15 02:26:45;;;;;;;9.10;5.13;;;;;;;19.02;71.81;100366.41;2107254;28;20038;-70
2022/10/15 02:28:13;;;;;;;6.97;4.70;;;;;;;18.98;72.01;100360.25;2101589;28;20048;-70
2022/10/15 02:29:39;;;;;;;11.35;5.45;;;;;;;18.99;71.95;100367.38;2108541;28;20090;-71
2022/10/15 02:31:02;;;;;;;9.73;4.68;;;;;;;19.00;72.09;100368.25;2102474;28;20553;-71
2022/10/15 02:32:26;;;;;;;9.10;5.88;;;;;;;19.01;72.47;100364.66;2099509;28;20118;-71
2022/10/15 02:33:54;;;;;;;10.68;5.13;;;;;;;19.01;72.40;100368.22;2108466;28;20097;-71
2022/10/15 02:35:17;;;;;;;12.68;4.68;;;;;;;18.97;72.29;100368.34;2097031;28;20048;-71
2022/10/15 02:36:41;;;;;;;9.98;5.13;;;;;;;18.97;72.34;100363.00;2098526;28;20147;-71
2022/10/15 02:38:08;;;;;;;7.47;4.32;;;;;;;18.98;72.69;100364.72;2097789;28;20060;-70
2022/10/15 02:39:31;;;;;;;9.05;4.75;;;;;;;19.00;72.68;100362.88;2105539;28;20184;-70
2022/10/15 02:40:54;;;;;;;7.70;5.20;;;;;;;19.00;72.65;100350.41;2101873;28;20491;-70
2022/10/15 02:42:17;;;;;;;8.25;4.90;;;;;;;18.98;72.38;100356.69;2099272;28;20046;-71
2022/10/15 02:43:41;;;;;;;8.75;5.05;;;;;;;18.98;72.71;100364.72;2099260;28;20047;-70
2022/10/15 02:45:03;;;;;;;7.07;5.18;;;;;;;18.98;72.65;100360.25;2101922;28;20040;-70
2022/10/15 02:46:26;;;;;;;8.52;5.05;;;;;;;19.00;72.95;100360.22;2093486;28;20067;-70
2022/10/15 02:47:47;;;;;;;7.28;4.70;;;;;;;19.00;72.72;100365.56;2091731;28;20086;-70
2022/10/15 02:49:11;;;;;;;11.52;5.40;;;;;;;18.98;72.59;100368.28;2103113;28;20518;-70
2022/10/15 02:50:33;;;;;;;7.43;4.90;;;;;;;18.98;72.39;100367.41;2103427;28;20048;-70
2022/10/15 02:51:56;;;;;;;10.20;4.95;;;;;;;18.98;72.25;100373.63;2095055;28;20555;-70
2022/10/15 02:53:19;;;;;;;8.57;5.20;;;;;;;19.03;72.40;100376.22;2100411;28;20101;-70
2022/10/15 02:54:40;;;;;;;8.88;5.78;;;;;;;19.07;72.51;100389.47;2095064;28;20093;-70
2022/10/15 02:56:03;;;;;;;8.15;5.07;;;;;;;19.11;72.70;100393.81;2100057;28;20040;-70
2022/10/15 02:57:26;;;;;;;6.53;4.32;;;;;;;19.16;72.70;100391.03;2100398;28;20076;-70
2022/10/15 02:58:48;;;;;;;9.25;4.63;;;;;;;19.21;72.77;100397.16;2100431;28;20052;-70
2022/10/15 03:00:10;;;;;;;8.52;4.38;;;;;;;19.28;72.76;100393.38;2100536;28;20388;-70
2022/10/15 03:01:35;;;;;;;7.65;4.45;;;;;;;19.33;72.62;100386.13;2100699;28;20036;-70
2022/10/15 03:02:59;;;;;;;7.88;4.70;;;;;;;19.41;72.41;100383.25;2100738;28;20051;-70
2022/10/15 03:04:22;;;;;;;8.95;4.82;;;;;;;19.45;72.45;100380.44;2108813;28;20118;-71
2022/10/15 03:05:45;;;;;;;6.68;4.65;;;;;;;19.51;72.03;100382.09;2103306;28;20076;-71
2022/10/15 03:07:08;;;;;;;8.95;4.78;;;;;;;19.52;72.29;100378.50;2097421;28;20514;-71
2022/10/15 03:08:31;;;;;;;8.57;4.10;;;;;;;19.52;72.23;100372.25;2106373;28;20072;-70
2022/10/15 03:09:56;;;;;;;8.52;4.72;;;;;;;19.52;72.11;100366.91;2103581;28;20044;-70
2022/10/15 03:11:20;;;;;;;8.07;4.55;;;;;;;19.51;72.16;100355.31;2100951;28;20528;-70
2022/10/15 03:12:42;;;;;;;8.77;4.95;;;;;;;19.53;72.52;100360.63;2111067;28;20515;-70
2022/10/15 03:14:06;;;;;;;7.57;4.53;;;;;;;19.53;72.53;100355.28;2103176;28;20063;-71
2022/10/15 03:15:28;;;;;;;8.88;5.25;;;;;;;19.50;72.33;100358.91;2092193;28;20047;-71
2022/10/15 03:16:51;;;;;;;8.85;4.88;;;;;;;19.45;72.12;100363.47;2097388;28;20071;-71
2022/10/15 03:18:13;;;;;;;9.70;5.00;;;;;;;19.39;72.33;100364.53;2108771;28;20142;-71
2022/10/15 03:19:36;;;;;;;7.75;5.07;;;;;;;19.35;72.35;100362.00;2103208;28;20380;-71
2022/10/15 03:20:59;;;;;;;7.90;4.93;;;;;;;19.31;72.21;100352.25;2107168;28;20491;-71
2022/10/15 03:22:21;;;;;;;10.35;4.80;;;;;;;19.27;72.10;100348.81;2102385;28;20086;-71
2022/10/15 03:23:47;;;;;;;8.38;4.45;;;;;;;19.25;72.21;100344.41;2103319;28;20048;-71
2022/10/15 03:25:14;;;;;;;10.30;4.55;;;;;;;19.22;72.45;100345.38;2099759;28;20147;-71
2022/10/15 03:26:37;;;;;;;7.85;4.45;;;;;;;19.17;72.58;100341.91;2108531;28;20046;-71
2022/10/15 03:28:01;;;;;;;8.52;5.20;;;;;;;19.11;72.91;100344.75;2101900;28;20055;-71
2022/10/15 03:29:31;;;;;;;8.37;5.33;;;;;;;19.03;73.15;100338.75;2102612;28;20605;-71
2022/10/15 03:30:58;;;;;;;9.82;4.95;;;;;;;19.00;73.53;100339.69;2101524;28;20327;-71
2022/10/15 03:32:21;;;;;;;9.88;4.60;;;;;;;19.00;73.58;100339.69;2094868;28;20492;-71
2022/10/15 03:33:44;;;;;;;10.23;5.20;;;;;;;19.01;73.81;100341.47;2100685;28;20052;-71
2022/10/15 03:35:09;;;;;;;13.02;4.97;;;;;;;19.02;73.77;100335.19;2103400;28;20051;-71
2022/10/15 03:36:32;;;;;;;11.63;5.25;;;;;;;19.03;73.60;100333.41;2101245;28;20059;-71
2022/10/15 03:37:56;;;;;;;7.93;4.68;;;;;;;19.02;73.52;100321.81;2100536;28;20526;-71
2022/10/15 03:39:20;;;;;;;6.85;4.65;;;;;;;19.00;73.26;100320.97;2108342;28;20495;-71
2022/10/15 03:40:42;;;;;;;11.70;5.10;;;;;;;18.94;73.65;100322.94;2094488;28;20056;-71
2022/10/15 03:42:23;;;;;;;8.52;4.70;;;;;;;18.86;73.85;100325.78;2107123;28;20135;-71
2022/10/15 03:43:45;;;;;;;8.57;5.13;;;;;;;18.81;74.24;100330.38;2105673;28;20052;-71
2022/10/15 03:45:09;;;;;;;8.68;5.20;;;;;;;18.77;74.37;100333.19;2099586;28;20062;-71
2022/10/15 03:46:31;;;;;;;10.55;5.22;;;;;;;18.71;74.50;100328.84;2103170;28;20070;-71
2022/10/15 03:47:55;;;;;;;8.20;5.22;;;;;;;18.69;74.81;100328.91;2100032;28;20423;-72
2022/10/15 03:49:17;;;;;;;7.55;4.78;;;;;;;18.72;75.06;100325.25;2102965;28;20056;-72
2022/10/15 03:50:41;;;;;;;8.52;5.60;;;;;;;18.78;75.16;100313.50;2100201;28;20415;-72
2022/10/15 03:52:02;;;;;;;9.35;5.15;;;;;;;18.86;75.46;100311.53;2102876;28;20487;-72
2022/10/15 03:53:25;;;;;;;8.85;4.70;;;;;;;18.95;75.16;100306.84;2101974;28;20067;-71
2022/10/15 03:54:46;;;;;;;8.65;4.22;;;;;;;19.06;74.99;100309.22;2102761;28;20048;-71
2022/10/15 03:56:11;;;;;;;7.82;5.10;;;;;;;19.14;74.61;100309.03;2109037;28;20544;-72
2022/10/15 03:57:33;;;;;;;8.23;5.10;;;;;;;19.12;73.99;100306.38;2102902;28;20044;-71
2022/10/15 03:59:00;;;;;;;9.20;4.70;;;;;;;19.09;73.97;100307.38;2101008;28;20048;-71
2022/10/15 04:00:21;;;;;;;8.90;5.18;;;;;;;19.07;73.90;100314.53;2098434;28;20496;-72
2022/10/15 04:01:46;;;;;;;9.77;5.68;;;;;;;19.06;73.51;100312.78;2100235;28;20109;-72
2022/10/15 04:03:08;;;;;;;7.03;4.82;;;;;;;19.02;73.57;100311.13;2108869;28;20051;-71
2022/10/15 04:04:29;;;;;;;15.88;11.02;;;;;;;19.01;73.53;100320.06;2104664;28;20549;-71
2022/10/15 04:05:54;;;;;;;19.80;16.67;;;;;;;18.97;73.61;100307.66;2099691;28;20043;-71
2022/10/15 04:07:19;;;;;;;16.95;13.90;;;;;;;18.96;73.49;100310.41;2100589;28;20146;-71
2022/10/15 04:08:41;;;;;;;10.75;7.13;;;;;;;18.92;73.56;100306.91;2100118;28;20075;-71
2022/10/15 04:10:16;;;;;;;8.48;5.32;;;;;;;18.90;73.84;100299.84;2090927;28;20056;-71
2022/10/15 04:11:37;;;;;;;10.02;6.18;;;;;;;18.88;74.16;100296.34;2102097;28;20444;-71
2022/10/15 04:13:00;;;;;;;10.45;5.88;;;;;;;18.85;74.02;100301.75;2108126;28;20063;-72
2022/10/15 04:14:22;;;;;;;10.60;5.88;;;;;;;18.80;74.02;100303.66;2102756;28;20052;-71
2022/10/15 04:15:44;;;;;;;9.10;5.15;;;;;;;18.74;74.53;100310.06;2094257;28;20488;-71
2022/10/15 04:17:07;;;;;;;9.48;5.38;;;;;;;18.70;74.51;100314.63;2100401;28;20071;-71
2022/10/15 04:18:30;;;;;;;9.70;5.47;;;;;;;18.71;74.99;100320.81;2102263;28;20514;-71
2022/10/15 04:19:53;;;;;;;13.52;5.40;;;;;;;18.73;75.00;100324.34;2100020;28;20071;-71
2022/10/15 04:21:20;;;;;;;9.77;6.57;;;;;;;18.78;75.12;100321.53;2102194;28;20538;-71
2022/10/15 04:22:46;;;;;;;14.50;6.43;;;;;;;18.76;74.82;100313.56;2103552;28;20047;-71
2022/10/15 04:24:10;;;;;;;13.45;6.05;;;;;;;18.76;74.57;100308.22;2094336;28;20048;-71
2022/10/15 04:25:36;;;;;;;12.95;5.75;;;;;;;18.75;74.54;100306.47;2094823;28;20515;-72
2022/10/15 04:26:59;;;;;;;11.50;5.63;;;;;;;18.71;74.50;100302.97;2096758;28;20076;-71
2022/10/15 04:28:21;;;;;;;9.60;5.35;;;;;;;18.67;74.74;100311.13;2100240;28;20039;-72
2022/10/15 04:29:48;;;;;;;9.20;5.70;;;;;;;18.62;74.82;100313.03;2102764;28;20079;-71
2022/10/15 04:31:09;;;;;;;14.63;8.30;;;;;;;18.59;74.80;100316.66;2103173;28;20047;-71
2022/10/15 04:32:32;;;;;;;11.98;8.65;;;;;;;18.59;75.00;100313.09;2094241;28;20131;-71
2022/10/15 04:33:54;;;;;;;11.57;7.63;;;;;;;18.59;74.95;100313.97;2099798;28;20510;-71
2022/10/15 04:35:16;;;;;;;12.50;7.70;;;;;;;18.64;74.80;100327.25;2100603;28;20040;-71
2022/10/15 04:37:01;;;;;;;11.48;9.55;;;;;;;18.70;74.74;100319.97;2113016;28;20044;-71
2022/10/15 04:38:24;;;;;;;10.23;6.63;;;;;;;18.73;74.52;100329.69;2102690;28;20516;-71
2022/10/15 04:40:07;;;;;;;9.98;6.07;;;;;;;18.75;74.37;100322.50;2113080;28;20043;-71
2022/10/15 04:41:29;;;;;;;8.57;5.13;;;;;;;18.76;74.34;100329.63;2094525;28;20079;-71
2022/10/15 04:42:59;;;;;;;7.30;5.10;;;;;;;18.79;74.28;100312.59;2096844;28;20051;-71
2022/10/15 04:44:22;;;;;;;8.20;5.40;;;;;;;18.83;74.43;100316.97;2094018;28;20036;-72
2022/10/15 04:45:48;;;;;;;12.82;6.15;;;;;;;18.87;74.09;100315.97;2086667;28;20049;-71
2022/10/15 04:47:14;;;;;;;12.13;6.50;;;;;;;18.90;73.70;100308.75;2092388;28;20032;-71
2022/10/15 04:48:42;;;;;;;10.85;6.22;;;;;;;18.92;73.70;100314.03;2101510;28;20086;-71
2022/10/15 04:50:07;;;;;;;11.63;6.57;;;;;;;18.96;73.42;100318.41;2102712;28;20040;-71
2022/10/15 04:51:56;;;;;;;14.30;7.75;;;;;;;18.96;73.63;100311.28;2098442;28;20137;-71
2022/10/15 04:53:32;;;;;;;12.88;6.68;;;;;;;18.98;73.37;100312.09;2101942;28;20617;-71
2022/10/15 04:54:57;;;;;;;9.57;6.30;;;;;;;18.96;73.45;100311.28;2108143;28;20082;-71
2022/10/15 04:56:21;;;;;;;11.38;6.60;;;;;;;18.97;73.44;100313.00;2102884;28;20585;-71
2022/10/15 04:57:43;;;;;;;10.10;7.38;;;;;;;18.98;73.59;100314.78;2108653;28;20126;-71
2022/10/15 04:59:08;;;;;;;11.75;8.25;;;;;;;19.05;73.54;100311.00;2102239;28;20055;-71
2022/10/15 05:00:48;;;;;;;12.80;8.35;;;;;;;19.10;73.54;100309.09;2096996;28;20131;-71
2022/10/15 05:02:24;;;;;;;13.30;8.02;;;;;;;19.13;73.05;100302.78;2087617;28;20079;-71
2022/10/15 05:03:51;;;;;;;13.45;5.93;;;;;;;19.09;72.96;100295.78;2094891;28;20048;-71
2022/10/15 05:05:13;;;;;;;10.68;5.20;;;;;;;19.07;73.02;100309.19;2085691;28;20052;-71
2022/10/15 05:06:45;;;;;;;14.93;9.10;;;;;;;19.10;73.27;100305.53;2085515;28;20052;-71
2022/10/15 05:08:12;;;;;;;21.02;15.48;;;;;;;19.16;72.93;100312.53;2084770;28;20055;-71
2022/10/15 05:09:57;;;;;;;17.42;12.48;;;;;;;19.21;72.72;100310.63;2096631;28;20056;-71
2022/10/15 05:11:22;;;;;;;13.85;8.80;;;;;;;19.26;72.63;100311.38;2094028;28;20157;-71
2022/10/15 05:12:45;;;;;;;12.25;7.75;;;;;;;19.30;72.56;100308.56;2093432;28;20143;-71
2022/10/15 05:14:08;;;;;;;13.27;6.82;;;;;;;19.36;72.70;100315.56;2091423;28;20057;-71
2022/10/15 05:15:31;;;;;;;13.20;8.00;;;;;;;19.42;72.30;100318.94;2088691;28;20074;-71
2022/10/15 05:16:52;;;;;;;15.27;7.38;;;;;;;19.48;72.34;100320.59;2101367;28;20660;-71
2022/10/15 05:18:15;;;;;;;11.70;7.60;;;;;;;19.52;72.24;100322.25;2098026;28;20449;-71
2022/10/15 05:19:43;;;;;;;12.85;7.07;;;;;;;19.56;72.02;100318.56;2101355;28;20087;-71
2022/10/15 05:21:13;;;;;;;11.73;7.82;;;;;;;19.63;71.82;100319.28;2101221;28;20491;-71
2022/10/15 05:22:36;;;;;;;17.42;12.27;;;;;;;19.69;71.73;100311.09;2099722;28;20074;-71
2022/10/15 05:23:59;;;;;;;16.67;11.32;;;;;;;19.74;71.64;100303.78;2099349;28;20072;-71
2022/10/15 05:25:47;;;;;;;12.73;7.68;;;;;;;19.80;71.30;100296.44;2113277;28;20509;-71
2022/10/15 05:27:15;;;;;;;10.75;6.53;;;;;;;19.83;71.33;100292.78;2097663;28;20520;-71
2022/10/15 05:28:37;;;;;;;11.55;6.68;;;;;;;19.87;71.35;100300.72;2088848;28;20041;-71
2022/10/15 05:30:00;;;;;;;12.77;7.43;;;;;;;19.92;71.16;100289.84;2085688;28;20544;-71
2022/10/15 05:31:42;;;;;;;;;;;;;;;19.94;70.99;100295.16;2113944;28;20043;-71
2022/10/15 05:33:14;;;;;;;9.60;6.75;;;;;;;19.99;70.93;100290.53;2098854;28;19985;-71
2022/10/15 05:34:36;;;;;;;11.63;6.75;;;;;;;19.99;71.02;100287.84;2094008;28;20060;-71
2022/10/15 05:36:10;;;;;;;9.70;5.97;;;;;;;20.02;71.00;100280.59;2092043;28;20047;-71
2022/10/15 05:37:33;;;;;;;9.85;5.25;;;;;;;20.04;71.06;100283.22;2094937;28;20452;-71
2022/10/15 05:38:57;;;;;;;10.15;5.20;;;;;;;20.05;70.78;100283.19;2101923;28;20060;-71
2022/10/15 05:40:19;;;;;;;8.85;5.05;;;;;;;20.06;70.82;100274.22;2107390;28;20146;-71
2022/10/15 05:41:55;;;;;;;8.35;5.00;;;;;;;20.06;70.48;100282.25;2103759;28;20047;-71
2022/10/15 05:43:27;;;;;;;7.53;5.47;;;;;;;20.07;70.67;100281.34;2101872;28;20040;-71
2022/10/15 05:44:50;;;;;;;12.43;5.70;;;;;;;20.11;70.61;100290.16;2107956;28;20043;-71
2022/10/15 05:46:13;;;;;;;9.82;5.20;;;;;;;20.13;70.46;100282.94;2096223;28;20041;-71
2022/10/15 05:47:35;;;;;;;10.50;5.07;;;;;;;20.13;70.42;100282.94;2088758;28;20075;-71
2022/10/15 05:49:10;;;;;;;10.32;5.38;;;;;;;20.11;70.52;100284.78;2099561;28;20048;-71
2022/10/15 05:51:02;;;;;;;11.32;5.28;;;;;;;20.04;70.70;100281.44;2107618;28;20125;-71
2022/10/15 05:52:25;;;;;;;7.18;4.65;;;;;;;19.98;70.60;100286.09;2099870;28;20090;-71
2022/10/15 05:54:10;;;;;;;8.68;4.70;;;;;;;19.89;70.77;100284.56;2096338;28;20052;-71
2022/10/15 05:55:32;;;;;;;7.32;4.38;;;;;;;19.85;70.95;100283.78;2096361;28;20108;-71
2022/10/15 05:56:56;;;;;;;7.22;4.75;;;;;;;19.82;71.11;100286.56;2099013;28;20492;-71
2022/10/15 05:58:19;;;;;;;8.30;5.10;;;;;;;19.80;71.17;100301.81;2109080;28;20055;-71
2022/10/15 05:59:42;;;;;;;9.68;5.13;;;;;;;19.80;71.25;100296.44;2110442;28;20070;-71
2022/10/15 06:01:06;;;;;;;8.52;5.03;;;;;;;19.82;71.44;100299.94;2109776;28;20598;-71
2022/10/15 06:02:31;;;;;;;7.13;4.47;;;;;;;19.87;71.29;100292.66;2110157;28;20055;-71
2022/10/15 06:03:54;;;;;;;7.97;4.35;;;;;;;19.97;71.06;100287.00;2104569;28;20055;-71
2022/10/15 06:05:15;;;;;;;7.15;4.43;;;;;;;20.06;70.82;100279.59;2105387;28;20035;-71
2022/10/15 06:06:38;;;;;;;10.18;4.82;;;;;;;20.12;70.67;100268.66;2110268;28;20055;-71
2022/10/15 06:08:00;;;;;;;10.45;4.75;;;;;;;20.13;70.54;100266.88;2103735;28;20144;-71
2022/10/15 06:09:22;;;;;;;12.75;5.10;;;;;;;20.11;70.55;100276.75;2109266;28;20043;-71
2022/10/15 06:10:45;;;;;;;7.05;4.82;;;;;;;20.08;70.40;100279.53;2110048;28;20079;-71
2022/10/15 06:12:09;;;;;;;20.48;17.10;;;;;;;20.07;70.58;100296.53;2101745;28;20086;-71
2022/10/15 06:13:31;;;;;;;13.88;9.68;;;;;;;20.03;70.72;100300.22;2106733;28;20050;-71
2022/10/15 06:14:53;;;;;;;11.77;7.05;;;;;;;20.00;70.68;100316.41;2110174;28;20053;-71
2022/10/15 06:16:17;;;;;;;10.82;5.63;;;;;;;19.75;71.69;100303.75;2100845;28;20039;-77
2022/10/15 06:17:39;;;;;;;15.48;5.70;;;;;;;19.43;74.12;100306.41;2097172;28;20048;-77
2022/10/15 06:19:02;;;;;;;11.30;5.40;;;;;;;19.26;75.98;100319.41;2104796;28;20112;-75
